createdAt,value
2023-01-29T00:02:00.757Z,7.47
2023-01-29T00:04:27.825Z,5.43
2023-01-29T00:06:54.451Z,5.95
2023-01-29T00:09:21.136Z,5.40
2023-01-29T00:11:47.663Z,8.23
2023-01-29T00:14:14.335Z,5.18
2023-01-29T00:16:41.501Z,5.68
2023-01-29T00:19:08.139Z,5.07
2023-01-29T00:21:35.043Z,5.20
2023-01-29T00:24:02.159Z,5.60
2023-01-29T00:26:29.247Z,4.88
2023-01-29T00:29:03.215Z,5.10
2023-01-29T00:31:30.004Z,5.13
2023-01-29T00:33:57.310Z,4.90
2023-01-29T00:36:25.608Z,5.38
2023-01-29T00:39:00.628Z,5.93
2023-01-29T00:41:47.830Z,5.85
2023-01-29T00:44:32.943Z,5.00
2023-01-29T00:46:59.694Z,5.35
2023-01-29T00:49:26.392Z,8.05
2023-01-29T00:52:11.623Z,4.35
2023-01-29T00:54:38.698Z,3.72
2023-01-29T00:57:05.728Z,4.97
2023-01-29T00:59:32.256Z,4.22
2023-01-29T01:02:17.641Z,6.75
2023-01-29T01:04:44.729Z,4.67
2023-01-29T01:07:14.751Z,5.38
2023-01-29T01:09:59.832Z,3.95
2023-01-29T01:12:26.817Z,5.10
2023-01-29T01:14:53.384Z,5.18
2023-01-29T01:17:20.464Z,4.50
2023-01-29T01:19:47.191Z,6.30
2023-01-29T01:22:14.268Z,4.53
2023-01-29T01:24:40.880Z,4.60
2023-01-29T01:27:07.481Z,3.38
2023-01-29T01:29:34.721Z,6.03
2023-01-29T01:32:02.027Z,9.15
2023-01-29T01:34:29.260Z,5.07
2023-01-29T01:36:59.079Z,6.47
2023-01-29T01:39:26.116Z,4.45
2023-01-29T01:41:54.899Z,4.88
2023-01-29T01:44:58.846Z,5.38
2023-01-29T01:47:40.777Z,7.50
2023-01-29T01:50:18.877Z,3.75
2023-01-29T01:52:49.421Z,5.38
2023-01-29T01:55:19.532Z,5.80
2023-01-29T01:57:50.809Z,4.63
2023-01-29T02:00:19.556Z,4.13
2023-01-29T02:03:05.478Z,5.28
2023-01-29T02:05:52.874Z,7.20
2023-01-29T02:09:00.530Z,5.47
2023-01-29T02:11:27.343Z,3.40
2023-01-29T02:13:54.204Z,4.38
2023-01-29T02:16:22.701Z,5.18
2023-01-29T02:18:50.652Z,4.47
2023-01-29T02:21:43.473Z,5.82
2023-01-29T02:24:31.113Z,4.53
2023-01-29T02:27:10.851Z,4.38
2023-01-29T02:29:43.434Z,3.85
2023-01-29T02:32:54.287Z,5.00
2023-01-29T02:35:32.711Z,5.35
2023-01-29T02:38:10.847Z,5.55
2023-01-29T02:40:50.183Z,5.13
2023-01-29T02:43:51.673Z,7.50
2023-01-29T02:46:57.769Z,5.68
2023-01-29T02:49:39.352Z,3.80
2023-01-29T02:52:16.579Z,4.57
2023-01-29T02:54:52.733Z,5.15
2023-01-29T02:57:29.264Z,5.05
2023-01-29T03:00:00.618Z,4.07
2023-01-29T03:02:52.930Z,6.10
2023-01-29T03:05:28.624Z,5.03
2023-01-29T03:08:02.029Z,4.53
2023-01-29T03:10:43.108Z,5.30
2023-01-29T03:13:38.122Z,5.18
2023-01-29T03:16:12.827Z,4.68
2023-01-29T03:18:50.893Z,5.38
2023-01-29T03:21:48.549Z,5.50
2023-01-29T03:24:36.439Z,5.07
2023-01-29T03:27:27.561Z,4.95
2023-01-29T03:30:14.948Z,5.32
2023-01-29T03:32:45.309Z,5.78
2023-01-29T03:35:20.977Z,6.50
2023-01-29T03:37:48.962Z,6.35
2023-01-29T03:40:16.821Z,6.20
2023-01-29T03:42:49.811Z,4.57
2023-01-29T03:45:28.908Z,6.13
2023-01-29T03:48:14.740Z,6.65
2023-01-29T03:51:16.818Z,5.47
2023-01-29T03:54:07.911Z,6.57
2023-01-29T03:56:40.743Z,5.38
2023-01-29T03:59:37.463Z,5.60
2023-01-29T04:02:12.556Z,6.00
2023-01-29T04:04:43.721Z,5.82
2023-01-29T04:07:15.368Z,7.22
2023-01-29T04:09:49.100Z,5.72
2023-01-29T04:12:22.033Z,6.25
2023-01-29T04:14:51.972Z,6.68
2023-01-29T04:17:34.171Z,6.00
2023-01-29T04:20:01.607Z,6.15
2023-01-29T04:22:33.066Z,5.47
2023-01-29T04:25:08.393Z,7.57
2023-01-29T04:28:06.112Z,9.27
2023-01-29T04:30:55.144Z,6.60
2023-01-29T04:33:24.725Z,6.82
2023-01-29T04:36:07.568Z,6.45
2023-01-29T04:38:43.389Z,7.88
2023-01-29T04:44:07.478Z,8.27
2023-01-29T04:46:48.184Z,6.63
2023-01-29T04:49:44.057Z,8.07
2023-01-29T04:52:32.408Z,7.43
2023-01-29T04:55:10.795Z,10.10
2023-01-29T04:57:46.262Z,7.05
2023-01-29T05:00:23.169Z,7.93
2023-01-29T05:02:50.030Z,7.78
2023-01-29T05:05:20.500Z,7.72
2023-01-29T05:07:48.319Z,10.20
2023-01-29T05:10:19.933Z,8.55
2023-01-29T05:12:55.788Z,9.57
2023-01-29T05:15:28.382Z,9.48
2023-01-29T05:18:01.833Z,8.32
2023-01-29T05:20:33.347Z,9.23
2023-01-29T05:23:00.387Z,9.13
2023-01-29T05:25:30.604Z,7.60
2023-01-29T05:28:16.236Z,8.55
2023-01-29T05:30:48.413Z,8.75
2023-01-29T05:33:21.277Z,8.98
2023-01-29T05:35:48.680Z,8.82
2023-01-29T05:38:16.119Z,8.35
2023-01-29T05:40:43.850Z,8.95
2023-01-29T05:43:25.065Z,7.97
2023-01-29T05:45:55.820Z,8.18
2023-01-29T05:48:23.030Z,8.02
2023-01-29T05:50:49.882Z,9.95
2023-01-29T05:53:16.915Z,8.68
2023-01-29T05:55:48.494Z,9.23
2023-01-29T05:58:15.635Z,7.60
2023-01-29T06:00:42.506Z,7.53
2023-01-29T06:03:09.217Z,9.70
2023-01-29T06:05:39.352Z,9.85
2023-01-29T06:08:06.955Z,8.68
2023-01-29T06:10:34.081Z,9.80
2023-01-29T06:13:01.195Z,11.38
2023-01-29T06:15:28.960Z,8.25
2023-01-29T06:17:56.923Z,9.38
2023-01-29T06:20:25.048Z,8.95
2023-01-29T06:22:52.521Z,9.88
2023-01-29T06:25:19.629Z,9.65
2023-01-29T06:27:46.343Z,8.30
2023-01-29T06:30:13.746Z,8.73
2023-01-29T06:32:41.784Z,11.10
2023-01-29T06:35:10.192Z,9.40
2023-01-29T06:37:37.107Z,11.43
2023-01-29T06:40:04.009Z,9.30
2023-01-29T06:42:30.590Z,9.88
2023-01-29T06:44:57.680Z,10.13
2023-01-29T06:47:24.853Z,10.50
2023-01-29T06:49:51.867Z,9.55
2023-01-29T06:52:19.471Z,9.50
2023-01-29T06:54:46.537Z,9.63
2023-01-29T06:57:13.606Z,9.70
2023-01-29T06:59:40.696Z,9.68
2023-01-29T07:02:07.768Z,10.02
2023-01-29T07:04:35.553Z,8.88
2023-01-29T07:07:02.572Z,9.38
2023-01-29T07:09:29.650Z,8.90
2023-01-29T07:11:56.231Z,11.13
2023-01-29T07:14:23.263Z,10.57
2023-01-29T07:16:50.427Z,10.82
2023-01-29T07:19:17.247Z,9.60
2023-01-29T07:21:43.873Z,9.95
2023-01-29T07:24:10.963Z,9.68
2023-01-29T07:26:37.997Z,10.20
2023-01-29T07:29:05.191Z,10.98
2023-01-29T07:31:32.324Z,10.43
2023-01-29T07:33:58.896Z,9.93
2023-01-29T07:36:25.498Z,10.18
2023-01-29T07:38:52.544Z,9.73
2023-01-29T07:41:19.205Z,10.65
2023-01-29T07:43:46.369Z,11.30
2023-01-29T07:46:13.047Z,11.98
2023-01-29T07:48:40.102Z,11.93
2023-01-29T07:51:07.691Z,14.05
2023-01-29T07:53:34.346Z,10.98
2023-01-29T07:56:01.390Z,9.00
2023-01-29T07:58:27.959Z,8.45
2023-01-29T08:00:54.594Z,8.85
2023-01-29T08:03:21.237Z,8.40
2023-01-29T08:05:48.208Z,8.65
2023-01-29T08:08:15.746Z,7.45
2023-01-29T08:10:42.748Z,7.30
2023-01-29T08:13:10.351Z,8.27
2023-01-29T08:15:39.076Z,10.27
2023-01-29T08:18:06.186Z,7.15
2023-01-29T08:20:32.960Z,6.60
2023-01-29T08:23:04.739Z,7.32
2023-01-29T08:25:32.998Z,6.85
2023-01-29T08:28:01.154Z,7.05
2023-01-29T08:30:31.051Z,7.15
2023-01-29T08:32:57.754Z,6.35
2023-01-29T08:35:24.498Z,6.82
2023-01-29T08:38:01.663Z,5.90
2023-01-29T08:40:31.638Z,6.75
2023-01-29T08:43:02.029Z,5.85
2023-01-29T08:45:30.331Z,5.25
2023-01-29T08:47:57.065Z,6.13
2023-01-29T08:50:23.904Z,5.25
2023-01-29T08:52:50.975Z,6.95
2023-01-29T08:55:18.065Z,6.30
2023-01-29T08:57:44.852Z,8.07
2023-01-29T09:00:12.009Z,4.90
2023-01-29T09:02:39.070Z,4.07
2023-01-29T09:05:06.444Z,6.65
2023-01-29T09:07:33.296Z,4.95
2023-01-29T09:10:00.479Z,5.53
2023-01-29T09:12:27.191Z,3.72
2023-01-29T09:14:54.295Z,5.03
2023-01-29T09:17:20.854Z,3.80
2023-01-29T09:19:47.472Z,4.22
2023-01-29T09:22:14.132Z,5.88
2023-01-29T09:24:40.735Z,3.88
2023-01-29T09:27:07.765Z,5.07
2023-01-29T09:29:35.968Z,7.22
2023-01-29T09:32:05.407Z,7.30
2023-01-29T09:34:33.782Z,6.63
2023-01-29T09:37:00.895Z,6.68
2023-01-29T09:39:27.458Z,7.45
2023-01-29T09:42:03.448Z,6.95
2023-01-29T09:47:18.827Z,6.57
2023-01-29T09:50:01.974Z,11.27
2023-01-29T09:52:55.513Z,7.18
2023-01-29T09:55:26.474Z,10.05
2023-01-29T09:57:53.004Z,8.98
2023-01-29T10:00:25.114Z,9.95
2023-01-29T10:03:11.141Z,9.60
2023-01-29T10:05:55.723Z,9.60
2023-01-29T10:08:50.374Z,12.52
2023-01-29T10:11:35.035Z,11.07
2023-01-29T10:14:37.833Z,11.90
2023-01-29T10:17:17.111Z,10.20
2023-01-29T10:19:43.676Z,10.57
2023-01-29T10:22:51.389Z,11.50
2023-01-29T10:25:21.304Z,10.25
2023-01-29T10:27:53.986Z,9.27
2023-01-29T10:30:40.164Z,11.50
2023-01-29T10:33:15.302Z,12.27
2023-01-29T10:35:46.727Z,13.82
2023-01-29T10:38:33.705Z,12.05
2023-01-29T10:41:14.939Z,10.50
2023-01-29T10:43:51.827Z,9.52
2023-01-29T10:46:31.511Z,9.25
2023-01-29T10:49:21.938Z,9.93
2023-01-29T10:52:17.136Z,10.90
2023-01-29T10:55:16.285Z,13.25
2023-01-29T10:57:55.166Z,13.00
2023-01-29T11:00:30.539Z,11.15
2023-01-29T11:02:57.351Z,11.85
2023-01-29T11:05:35.155Z,14.35
2023-01-29T11:08:15.524Z,11.43
2023-01-29T11:10:54.254Z,10.75
2023-01-29T11:13:35.301Z,12.20
2023-01-29T11:16:05.067Z,14.48
2023-01-29T11:18:51.587Z,12.40
2023-01-29T11:21:19.351Z,10.90
2023-01-29T11:23:46.581Z,14.18
2023-01-29T11:26:19.283Z,22.88
2023-01-29T11:28:48.070Z,17.90
2023-01-29T11:31:27.512Z,19.02
2023-01-29T11:34:03.439Z,21.58
2023-01-29T11:39:24.664Z,12.40
2023-01-29T11:42:04.075Z,14.93
2023-01-29T11:44:40.869Z,12.98
2023-01-29T11:47:12.454Z,15.82
2023-01-29T11:49:44.795Z,20.05
2023-01-29T11:52:14.045Z,18.55
2023-01-29T11:54:51.554Z,12.80
2023-01-29T11:57:41.180Z,15.60
2023-01-29T12:00:22.179Z,11.73
2023-01-29T12:03:07.374Z,10.13
2023-01-29T12:05:34.174Z,7.55
2023-01-29T12:08:02.960Z,9.45
2023-01-29T12:10:32.989Z,12.82
2023-01-29T12:13:15.834Z,9.20
2023-01-29T12:15:43.035Z,7.43
2023-01-29T12:18:35.471Z,10.40
2023-01-29T12:21:04.783Z,10.02
2023-01-29T12:23:39.234Z,9.15
2023-01-29T12:26:16.079Z,7.43
2023-01-29T12:29:16.276Z,8.95
2023-01-29T12:31:48.809Z,9.73
2023-01-29T12:34:43.563Z,6.43
2023-01-29T12:37:21.339Z,5.10
2023-01-29T12:39:50.143Z,9.43
2023-01-29T12:42:20.504Z,10.25
2023-01-29T12:44:57.723Z,6.55
2023-01-29T12:47:32.141Z,5.93
2023-01-29T12:50:05.583Z,7.28
2023-01-29T12:52:49.886Z,8.55
2023-01-29T12:55:27.208Z,6.32
2023-01-29T12:58:02.197Z,6.82
2023-01-29T13:00:33.853Z,5.60
2023-01-29T13:03:31.238Z,7.40
2023-01-29T13:06:02.571Z,8.40
2023-01-29T13:08:58.012Z,5.78
2023-01-29T13:11:30.262Z,7.70
2023-01-29T13:14:02.189Z,5.70
2023-01-29T13:16:36.325Z,5.10
2023-01-29T13:19:06.566Z,4.07
2023-01-29T13:21:41.866Z,3.50
2023-01-29T13:24:23.609Z,9.63
2023-01-29T13:26:50.721Z,7.75
2023-01-29T13:29:26.507Z,4.47
2023-01-29T13:31:56.115Z,7.75
2023-01-29T13:34:29.424Z,5.30
2023-01-29T13:36:59.234Z,5.22
2023-01-29T13:39:34.962Z,5.97
2023-01-29T13:42:14.720Z,6.10
2023-01-29T13:44:41.541Z,5.85
2023-01-29T13:47:11.817Z,3.35
2023-01-29T13:49:43.067Z,3.63
2023-01-29T13:52:44.720Z,4.68
2023-01-29T13:55:14.257Z,4.88
2023-01-29T13:57:43.936Z,7.18
2023-01-29T14:00:22.686Z,3.05
2023-01-29T14:02:55.349Z,4.75
2023-01-29T14:05:30.908Z,4.65
2023-01-29T14:07:59.235Z,2.85
2023-01-29T14:10:31.527Z,5.00
2023-01-29T14:13:04.185Z,10.43
2023-01-29T14:15:34.325Z,5.25
2023-01-29T14:18:05.094Z,4.63
2023-01-29T14:20:45.955Z,3.67
2023-01-29T14:23:40.480Z,3.80
2023-01-29T14:26:34.736Z,3.42
2023-01-29T14:29:21.661Z,3.40
2023-01-29T14:32:08.793Z,5.57
2023-01-29T14:34:48.939Z,3.88
2023-01-29T14:37:15.433Z,3.58
2023-01-29T14:39:45.998Z,3.88
2023-01-29T14:42:18.916Z,2.75
2023-01-29T14:44:45.729Z,5.57
2023-01-29T14:47:46.265Z,3.88
2023-01-29T14:50:34.760Z,2.50
2023-01-29T14:53:20.434Z,2.90
2023-01-29T14:56:12.625Z,3.75
2023-01-29T14:58:45.545Z,2.92
2023-01-29T15:01:25.812Z,3.63
2023-01-29T15:03:59.304Z,3.22
2023-01-29T15:06:45.779Z,2.60
2023-01-29T15:09:36.545Z,4.38
2023-01-29T15:12:27.034Z,3.97
2023-01-29T15:15:21.437Z,3.67
2023-01-29T15:18:09.318Z,3.75
2023-01-29T15:20:39.012Z,3.47
2023-01-29T15:23:25.904Z,8.98
2023-01-29T15:25:56.388Z,2.28
2023-01-29T15:28:23.640Z,3.85
2023-01-29T15:30:56.418Z,2.63
2023-01-29T15:33:23.306Z,3.65
2023-01-29T15:36:06.805Z,3.78
2023-01-29T15:38:33.842Z,2.88
2023-01-29T15:41:02.972Z,3.03
2023-01-29T15:43:37.535Z,2.85
2023-01-29T15:46:19.888Z,4.32
2023-01-29T15:48:49.046Z,3.85
2023-01-29T15:51:20.984Z,3.28
2023-01-29T15:53:54.162Z,2.95
2023-01-29T15:56:34.995Z,3.15
2023-01-29T15:59:09.410Z,4.07
2023-01-29T16:01:37.030Z,2.83
2023-01-29T16:04:04.230Z,3.42
2023-01-29T16:06:37.511Z,3.53
2023-01-29T16:09:06.009Z,2.80
2023-01-29T16:11:35.886Z,3.65
2023-01-29T16:14:04.411Z,2.75
2023-01-29T16:16:31.191Z,6.22
2023-01-29T16:19:00.752Z,3.55
2023-01-29T16:21:43.507Z,4.47
2023-01-29T16:24:15.946Z,3.30
2023-01-29T16:26:47.879Z,2.67
2023-01-29T16:29:18.341Z,2.95
2023-01-29T16:31:47.566Z,2.55
2023-01-29T16:34:32.715Z,4.22
2023-01-29T16:37:03.347Z,3.15
2023-01-29T16:39:32.758Z,2.80
2023-01-29T16:42:19.828Z,2.53
2023-01-29T16:44:54.701Z,3.58
2023-01-29T16:47:29.650Z,2.92
2023-01-29T16:49:59.030Z,3.43
2023-01-29T16:52:32.192Z,2.60
2023-01-29T16:55:20.966Z,7.13
2023-01-29T16:57:53.634Z,3.13
2023-01-29T17:00:25.469Z,2.95
2023-01-29T17:02:56.864Z,3.15
2023-01-29T17:05:30.200Z,3.25
2023-01-29T17:07:58.772Z,3.97
2023-01-29T17:10:27.362Z,3.40
2023-01-29T17:13:32.954Z,3.80
2023-01-29T17:16:14.815Z,3.40
2023-01-29T17:18:41.942Z,3.70
2023-01-29T17:21:08.475Z,3.45
2023-01-29T17:23:35.033Z,4.07
2023-01-29T17:26:02.547Z,3.92
2023-01-29T17:28:29.165Z,3.92
2023-01-29T17:31:05.755Z,6.32
2023-01-29T17:33:35.563Z,3.53
2023-01-29T17:36:05.779Z,3.95
2023-01-29T17:38:33.249Z,4.15
2023-01-29T17:41:07.386Z,3.47
2023-01-29T17:43:34.934Z,3.70
2023-01-29T17:46:01.550Z,4.15
2023-01-29T17:48:29.808Z,5.85
2023-01-29T17:51:03.025Z,5.75
2023-01-29T17:53:44.356Z,3.30
2023-01-29T17:56:17.123Z,4.15
2023-01-29T17:58:44.002Z,4.88
2023-01-29T18:01:10.623Z,6.63
2023-01-29T18:03:37.264Z,2.88
2023-01-29T18:06:07.322Z,3.67
2023-01-29T18:08:37.354Z,4.03
2023-01-29T18:11:04.457Z,3.45
2023-01-29T18:13:31.599Z,3.92
2023-01-29T18:15:58.196Z,3.65
2023-01-29T18:18:25.091Z,5.22
2023-01-29T18:20:52.210Z,4.13
2023-01-29T18:23:19.489Z,3.78
2023-01-29T18:25:46.415Z,3.67
2023-01-29T18:28:17.066Z,3.25
2023-01-29T18:30:47.035Z,3.25
2023-01-29T18:33:14.931Z,3.22
2023-01-29T18:35:41.971Z,3.85
2023-01-29T18:38:08.528Z,3.80
2023-01-29T18:40:35.076Z,3.42
2023-01-29T18:43:01.724Z,3.15
2023-01-29T18:45:28.875Z,4.88
2023-01-29T18:47:55.871Z,4.53
2023-01-29T18:50:26.405Z,7.53
2023-01-29T18:52:54.348Z,3.97
2023-01-29T18:55:22.121Z,3.97
2023-01-29T18:58:28.983Z,4.97
2023-01-29T19:00:41.605Z,3.72
2023-01-29T19:03:08.669Z,4.35
2023-01-29T19:05:35.748Z,7.13
2023-01-29T19:08:02.915Z,8.10
2023-01-29T19:10:29.438Z,5.03
2023-01-29T19:12:56.027Z,4.03
2023-01-29T19:15:23.364Z,3.65
2023-01-29T19:17:51.081Z,4.55
2023-01-29T19:20:19.276Z,5.10
2023-01-29T19:22:46.000Z,5.47
2023-01-29T19:25:13.782Z,4.72
2023-01-29T19:27:40.426Z,3.72
2023-01-29T19:30:08.416Z,5.28
2023-01-29T19:32:35.383Z,5.15
2023-01-29T19:35:02.045Z,5.68
2023-01-29T19:37:30.507Z,5.00
2023-01-29T19:39:57.131Z,6.13
2023-01-29T19:42:23.918Z,6.03
2023-01-29T19:44:52.091Z,4.85
2023-01-29T19:47:18.969Z,7.75
2023-01-29T19:49:45.661Z,4.75
2023-01-29T19:52:49.805Z,5.25
2023-01-29T19:55:17.979Z,7.20
2023-01-29T19:57:44.823Z,4.82
2023-01-29T20:00:15.478Z,4.78
2023-01-29T20:02:42.093Z,4.47
2023-01-29T20:05:11.952Z,5.00
2023-01-29T20:07:40.040Z,4.80
2023-01-29T20:10:09.673Z,5.43
2023-01-29T20:12:36.293Z,4.90
2023-01-29T20:15:03.343Z,3.85
2023-01-29T20:17:30.264Z,4.82
2023-01-29T20:19:56.826Z,4.88
2023-01-29T20:22:23.466Z,4.45
2023-01-29T20:24:50.043Z,6.15
2023-01-29T20:27:16.600Z,5.55
2023-01-29T20:29:45.298Z,4.68
2023-01-29T20:32:12.977Z,5.00
2023-01-29T20:34:39.548Z,5.20
2023-01-29T20:37:06.308Z,10.95
2023-01-29T20:39:33.684Z,7.20
2023-01-29T20:42:00.357Z,5.10
2023-01-29T20:44:26.909Z,5.57
2023-01-29T20:46:54.158Z,14.32
2023-01-29T20:49:21.789Z,5.10
2023-01-29T20:51:48.351Z,4.00
2023-01-29T20:54:14.994Z,6.45
2023-01-29T20:56:42.085Z,4.03
2023-01-29T20:59:11.326Z,3.95
2023-01-29T21:01:37.889Z,6.15
2023-01-29T21:04:04.474Z,7.60
2023-01-29T21:06:31.239Z,4.18
2023-01-29T21:09:00.267Z,3.58
2023-01-29T21:11:27.002Z,4.13
2023-01-29T21:13:57.550Z,4.65
2023-01-29T21:16:26.242Z,4.55
2023-01-29T21:18:58.057Z,4.28
2023-01-29T21:21:26.611Z,4.75
2023-01-29T21:23:53.373Z,3.97
2023-01-29T21:26:20.060Z,3.92
2023-01-29T21:28:46.648Z,4.18
2023-01-29T21:31:14.653Z,3.63
2023-01-29T21:33:41.255Z,3.17
2023-01-29T21:36:08.647Z,5.10
2023-01-29T21:38:35.374Z,3.22
2023-01-29T21:41:04.570Z,2.92
2023-01-29T21:43:31.252Z,4.25
2023-01-29T21:46:00.562Z,3.63
2023-01-29T21:48:27.208Z,3.53
2023-01-29T21:50:53.799Z,3.50
2023-01-29T21:53:20.997Z,3.92
2023-01-29T21:55:48.204Z,2.70
2023-01-29T21:58:14.886Z,2.85
2023-01-29T22:00:41.515Z,3.60
2023-01-29T22:03:16.287Z,4.50
2023-01-29T22:05:43.336Z,5.20
2023-01-29T22:08:10.026Z,3.15
2023-01-29T22:10:36.980Z,6.55
2023-01-29T22:13:04.265Z,3.60
2023-01-29T22:15:30.873Z,3.55
2023-01-29T22:17:57.987Z,6.78
2023-01-29T22:20:30.699Z,3.30
2023-01-29T22:22:59.399Z,4.82
2023-01-29T22:25:26.504Z,2.80
2023-01-29T22:27:53.724Z,4.72
2023-01-29T22:30:21.706Z,6.40
2023-01-29T22:32:48.893Z,7.05
2023-01-29T22:35:16.226Z,7.47
2023-01-29T22:37:43.283Z,6.90
2023-01-29T22:40:10.910Z,8.60
2023-01-29T22:42:37.523Z,8.35
2023-01-29T22:45:04.312Z,11.15
2023-01-29T22:47:33.140Z,7.60
2023-01-29T22:50:00.196Z,8.57
2023-01-29T22:52:28.391Z,11.48
2023-01-29T22:54:55.543Z,9.05
2023-01-29T22:57:22.206Z,11.02
2023-01-29T22:59:48.759Z,11.10
2023-01-29T23:02:15.861Z,10.90
2023-01-29T23:04:42.978Z,13.23
2023-01-29T23:07:09.692Z,12.30
2023-01-29T23:09:36.747Z,11.50
2023-01-29T23:12:04.316Z,9.57
2023-01-29T23:14:30.974Z,9.98
2023-01-29T23:16:58.076Z,10.80
2023-01-29T23:19:25.243Z,10.02
2023-01-29T23:21:52.335Z,12.02
2023-01-29T23:24:19.460Z,11.05
2023-01-29T23:27:04.738Z,11.15
2023-01-29T23:29:31.756Z,11.98
2023-01-29T23:31:58.330Z,13.20
2023-01-29T23:34:25.406Z,17.58
2023-01-29T23:36:52.488Z,11.93
2023-01-29T23:39:19.086Z,11.43
2023-01-29T23:41:46.083Z,11.88
2023-01-29T23:44:13.153Z,11.23
2023-01-29T23:46:40.073Z,9.90
2023-01-29T23:49:07.356Z,8.50
2023-01-29T23:51:34.365Z,9.40
2023-01-29T23:54:01.960Z,14.75
2023-01-29T23:56:29.001Z,14.27
2023-01-29T23:58:57.239Z,10.10
